LKPR Weather Reports


Display with metric or nautical units.
time (UTC)temp
F
wind
direction
speed
MPH
gust
MPH
rain 1hr
in
rain 24hr
in
rain mn
in
humidity
%
barometer
mb
20201026033208 48 120 3.0 0.0 0.00 0.00 0.00 93 1006.0
20201026031210 48 110 7.0 0.0 0.00 0.00 0.00 93
20201026030211 48 120 6.0 0.0 0.00 0.00 0.00 93 1006.0
20201026023208 48 0 2.0 0.0 0.00 0.00 0.00 93 1006.0
20201026021216 48 140 7.0 0.0 0.00 0.00 0.00 93
20201026020209 48 130 6.0 0.0 0.00 0.00 0.00 93 1006.0
20201026013208 48 140 6.0 0.0 0.00 0.00 0.00 93 1006.0
20201026011512 48 140 6.0 0.0 0.00 0.00 0.00 93 1007.0
20201026011223 48 140 9.0 0.0 0.00 0.00 0.00 93
20201026010211 48 140 7.0 0.0 0.00 0.00 0.00 93 1007.0
20201026003214 48 130 9.0 0.0 0.00 0.00 0.00 93 1007.0
20201026001212 46 150 9.0 0.0 0.00 0.00 0.00 99
20201026000216 48 140 9.0 0.0 0.00 0.00 0.00 93 1007.0
20201025233209 46 140 9.0 0.0 0.00 0.00 0.00 100 1008.0
20201025231806 45 130 9.0 0.0 0.00 0.00 0.00 93 1008.0
20201025231208 45 160 7.0 0.0 0.00 0.00 0.00 99
20201025230210 45 140 6.0 0.0 0.00 0.00 0.00 100 1008.0
20201025224716 45 140 6.0 0.0 0.00 0.00 0.00 100 1008.0
20201025223211 41 120 3.0 0.0 0.00 0.00 0.00 100 1008.0
20201025222304 41 110 3.0 0.0 0.00 0.00 0.00 100 1008.0
20201025221209 41 320 2.0 0.0 0.00 0.00 0.00 99
20201025221101 41 0 0.0 0.0 0.00 0.00 0.00 93 1008.0
20201025220210 41 0 0.0 0.0 0.00 0.00 0.00 100 1008.0
20201025214901 43 0 2.0 0.0 0.00 0.00 0.00 100 1008.0
20201025214601 45 0 1.0 0.0 0.00 0.00 0.00 100 1008.0
20201025213210 46 0 1.0 0.0 0.00 0.00 0.00 93 1008.0
20201025211210 48 120 2.0 0.0 0.00 0.00 0.00 93
20201025210209 48 100 2.0 0.0 0.00 0.00 0.00 93 1008.0
20201025203211 48 160 3.0 0.0 0.00 0.00 0.00 93 1008.0
20201025201214 50 160 9.0 0.0 0.00 0.00 0.00 87
20201025200209 50 140 7.0 0.0 0.00 0.00 0.00 87 1008.0
20201025193210 50 150 9.0 0.0 0.00 0.00 0.00 87 1007.0
20201025191210 50 180 7.0 0.0 0.00 0.00 0.00 87
20201025190212 50 170 8.0 0.0 0.00 0.00 0.00 87 1008.0
20201025183209 52 150 8.0 0.0 0.00 0.00 0.00 81 1008.0
20201025181154 52 150 7.0 0.0 0.00 0.00 0.00 93
20201025180238 52 150 8.0 0.0 0.00 0.00 0.00 93 1008.0
20201025173209 48 140 3.0 0.0 0.00 0.00 0.00 93 1008.0
20201025171210 50 110 5.0 0.0 0.00 0.00 0.00 93
20201025170338 52 100 5.0 0.0 0.00 0.00 0.00 93 1008.0
20201025163211 50 0 2.0 0.0 0.00 0.00 0.00 93 1008.0
20201025161218 52 80 7.0 0.0 0.00 0.00 0.00 93
20201025160217 52 80 3.0 0.0 0.00 0.00 0.00 93 1009.0
20201025153209 54 90 3.0 0.0 0.00 0.00 0.00 93 1009.0
20201025151214 55 80 9.0 0.0 0.00 0.00 0.00 87
20201025150214 55 90 7.0 0.0 0.00 0.00 0.00 87 1009.0
20201025143216 57 80 8.0 0.0 0.00 0.00 0.00 76 1009.0
20201025141210 57 90 9.0 0.0 0.00 0.00 0.00 76
20201025140210 59 70 7.0 0.0 0.00 0.00 0.00 72 1009.0
20201025133209 59 120 8.0 0.0 0.00 0.00 0.00 67 1009.0
20201025131214 59 150 7.0 0.0 0.00 0.00 0.00 67
20201025130209 59 150 7.0 0.0 0.00 0.00 0.00 67 1010.0
20201025123211 59 160 7.0 0.0 0.00 0.00 0.00 67 1010.0
20201025121219 59 150 5.0 0.0 0.00 0.00 0.00 72
20201025120214 59 150 5.0 0.0 0.00 0.00 0.00 67 1011.0
20201025113216 57 130 5.0 0.0 0.00 0.00 0.00 71 1011.0
20201025111212 57 160 5.0 0.0 0.00 0.00 0.00 67
20201025110210 57 180 6.0 0.0 0.00 0.00 0.00 67 1012.0
20201025103211 55 170 6.0 0.0 0.00 0.00 0.00 76 1012.0
20201025101210 55 160 7.0 0.0 0.00 0.00 0.00 76
20201025100213 55 140 7.0 0.0 0.00 0.00 0.00 76 1012.0
20201025093210 55 140 6.0 0.0 0.00 0.00 0.00 71 1013.0
20201025091210 54 160 5.0 0.0 0.00 0.00 0.00 76
20201025090213 54 140 5.0 0.0 0.00 0.00 0.00 76 1013.0
20201025083218 52 0 2.0 0.0 0.00 0.00 0.00 81 1013.0
20201025081210 50 180 5.0 0.0 0.00 0.00 0.00 87
20201025080219 50 160 5.0 0.0 0.00 0.00 0.00 87 1013.0
20201025073209 48 150 7.0 0.0 0.00 0.00 0.00 87 1013.0
20201025071211 46 170 7.0 0.0 0.00 0.00 0.00 93
20201025070211 46 160 7.0 0.0 0.00 0.00 0.00 93 1014.0
20201025063209 45 160 7.0 0.0 0.00 0.00 0.00 93 1014.0
20201025061212 43 170 5.0 0.0 0.00 0.00 0.00 99
20201025060210 45 170 7.0 0.0 0.00 0.00 0.00 93 1014.0
20201025053212 43 210 5.0 0.0 0.00 0.00 0.00 100 1014.0
20201025051216 43 190 7.0 0.0 0.00 0.00 0.00 93
20201025050218 43 200 6.0 0.0 0.00 0.00 0.00 93 1014.0
20201025043208 45 180 8.0 0.0 0.00 0.00 0.00 87 1014.0
20201025041208 43 190 9.0 0.0 0.00 0.00 0.00 99
20201025040208 43 180 8.0 0.0 0.00 0.00 0.00 100 1014.0